sensor_id;sensor_type;location;lat;lon;timestamp;temperature;humidity
48936;DHT22;34745;52.276;10.528;2022-10-26T00:01:04;11.70;99.90
48936;DHT22;34745;52.276;10.528;2022-10-26T00:03:34;11.70;99.90
48936;DHT22;34745;52.276;10.528;2022-10-26T00:06:03;11.70;99.90
48936;DHT22;34745;52.276;10.528;2022-10-26T00:08:30;11.70;99.90
48936;DHT22;34745;52.276;10.528;2022-10-26T00:10:58;11.60;99.90
48936;DHT22;34745;52.276;10.528;2022-10-26T00:13:25;11.60;99.90
48936;DHT22;34745;52.276;10.528;2022-10-26T00:15:52;11.60;99.90
48936;DHT22;34745;52.276;10.528;2022-10-26T00:18:19;11.50;99.90
48936;DHT22;34745;52.276;10.528;2022-10-26T00:20:47;11.60;99.90
48936;DHT22;34745;52.276;10.528;2022-10-26T00:23:14;11.50;99.90
48936;DHT22;34745;52.276;10.528;2022-10-26T00:25:42;11.50;99.90
48936;DHT22;34745;52.276;10.528;2022-10-26T00:28:08;11.40;99.90
48936;DHT22;34745;52.276;10.528;2022-10-26T00:30:38;11.40;99.90
48936;DHT22;34745;52.276;10.528;2022-10-26T00:33:05;11.40;99.90
48936;DHT22;34745;52.276;10.528;2022-10-26T00:35:32;11.40;99.90
48936;DHT22;34745;52.276;10.528;2022-10-26T00:38:12;11.40;99.90
48936;DHT22;34745;52.276;10.528;2022-10-26T00:40:40;11.30;99.90
48936;DHT22;34745;52.276;10.528;2022-10-26T00:43:13;11.30;99.90
48936;DHT22;34745;52.276;10.528;2022-10-26T00:45:42;11.30;99.90
48936;DHT22;34745;52.276;10.528;2022-10-26T00:48:16;11.30;99.90
48936;DHT22;34745;52.276;10.528;2022-10-26T00:50:46;11.30;99.90
48936;DHT22;34745;52.276;10.528;2022-10-26T00:53:16;11.30;99.90
48936;DHT22;34745;52.276;10.528;2022-10-26T00:55:46;11.40;99.90
48936;DHT22;34745;52.276;10.528;2022-10-26T00:58:15;11.30;99.90
48936;DHT22;34745;52.276;10.528;2022-10-26T01:00:42;11.30;99.90
48936;DHT22;34745;52.276;10.528;2022-10-26T01:03:10;11.30;99.90
48936;DHT22;34745;52.276;10.528;2022-10-26T01:05:40;11.30;99.90
48936;DHT22;34745;52.276;10.528;2022-10-26T01:08:08;11.30;99.90
48936;DHT22;34745;52.276;10.528;2022-10-26T01:10:38;11.30;99.90
48936;DHT22;34745;52.276;10.528;2022-10-26T01:13:06;11.30;99.90
48936;DHT22;34745;52.276;10.528;2022-10-26T01:15:40;11.30;99.90
48936;DHT22;34745;52.276;10.528;2022-10-26T01:18:14;11.30;99.90
48936;DHT22;34745;52.276;10.528;2022-10-26T01:23:58;11.30;99.90
48936;DHT22;34745;52.276;10.528;2022-10-26T01:26:56;11.30;99.90
48936;DHT22;34745;52.276;10.528;2022-10-26T01:29:48;11.20;99.90
48936;DHT22;34745;52.276;10.528;2022-10-26T01:32:22;11.20;99.90
48936;DHT22;34745;52.276;10.528;2022-10-26T01:34:55;11.20;99.90
48936;DHT22;34745;52.276;10.528;2022-10-26T01:37:29;11.20;99.90
48936;DHT22;34745;52.276;10.528;2022-10-26T01:40:02;11.20;99.90
48936;DHT22;34745;52.276;10.528;2022-10-26T01:42:33;11.20;99.90
48936;DHT22;34745;52.276;10.528;2022-10-26T01:45:05;11.10;99.90
48936;DHT22;34745;52.276;10.528;2022-10-26T01:47:35;11.10;99.90
48936;DHT22;34745;52.276;10.528;2022-10-26T01:50:05;11.10;99.90
48936;DHT22;34745;52.276;10.528;2022-10-26T01:52:32;11.10;99.90
48936;DHT22;34745;52.276;10.528;2022-10-26T01:55:01;11.10;99.90
48936;DHT22;34745;52.276;10.528;2022-10-26T01:57:31;11.10;99.90
48936;DHT22;34745;52.276;10.528;2022-10-26T02:00:05;11.10;99.90
48936;DHT22;34745;52.276;10.528;2022-10-26T02:05:34;11.20;99.90
48936;DHT22;34745;52.276;10.528;2022-10-26T02:08:25;11.20;99.90
48936;DHT22;34745;52.276;10.528;2022-10-26T02:11:07;11.30;99.90
48936;DHT22;34745;52.276;10.528;2022-10-26T02:13:42;11.20;99.90
48936;DHT22;34745;52.276;10.528;2022-10-26T02:16:16;11.20;99.90
48936;DHT22;34745;52.276;10.528;2022-10-26T02:18:51;11.20;99.90
48936;DHT22;34745;52.276;10.528;2022-10-26T02:21:25;11.20;99.90
48936;DHT22;34745;52.276;10.528;2022-10-26T02:23:55;11.20;99.90
48936;DHT22;34745;52.276;10.528;2022-10-26T02:26:26;11.30;99.90
48936;DHT22;34745;52.276;10.528;2022-10-26T02:28:58;11.30;99.90
48936;DHT22;34745;52.276;10.528;2022-10-26T02:31:27;11.30;99.90
48936;DHT22;34745;52.276;10.528;2022-10-26T02:33:59;11.40;99.90
48936;DHT22;34745;52.276;10.528;2022-10-26T02:36:30;11.40;99.90
48936;DHT22;34745;52.276;10.528;2022-10-26T02:38:58;11.50;99.90
48936;DHT22;34745;52.276;10.528;2022-10-26T02:41:27;11.50;99.90
48936;DHT22;34745;52.276;10.528;2022-10-26T02:44:01;11.50;99.90
48936;DHT22;34745;52.276;10.528;2022-10-26T02:46:31;11.40;99.90
48936;DHT22;34745;52.276;10.528;2022-10-26T02:49:00;11.40;99.90
48936;DHT22;34745;52.276;10.528;2022-10-26T02:51:30;11.40;99.90
48936;DHT22;34745;52.276;10.528;2022-10-26T02:54:06;11.40;99.90
48936;DHT22;34745;52.276;10.528;2022-10-26T02:56:40;11.50;99.90
48936;DHT22;34745;52.276;10.528;2022-10-26T02:59:08;11.50;99.90
48936;DHT22;34745;52.276;10.528;2022-10-26T03:01:37;11.60;99.90
48936;DHT22;34745;52.276;10.528;2022-10-26T03:04:07;11.60;99.90
48936;DHT22;34745;52.276;10.528;2022-10-26T03:06:34;11.50;99.90
48936;DHT22;34745;52.276;10.528;2022-10-26T03:09:01;11.80;99.90
48936;DHT22;34745;52.276;10.528;2022-10-26T03:11:28;11.60;99.90
48936;DHT22;34745;52.276;10.528;2022-10-26T03:13:55;11.60;99.90
48936;DHT22;34745;52.276;10.528;2022-10-26T03:16:22;11.60;99.90
48936;DHT22;34745;52.276;10.528;2022-10-26T03:18:50;11.60;99.90
48936;DHT22;34745;52.276;10.528;2022-10-26T03:21:18;11.60;99.90
48936;DHT22;34745;52.276;10.528;2022-10-26T03:23:45;11.60;99.90
48936;DHT22;34745;52.276;10.528;2022-10-26T03:26:13;11.70;99.90
48936;DHT22;34745;52.276;10.528;2022-10-26T03:28:40;11.70;99.90
48936;DHT22;34745;52.276;10.528;2022-10-26T03:31:07;11.70;99.90
48936;DHT22;34745;52.276;10.528;2022-10-26T03:33:34;11.80;99.90
48936;DHT22;34745;52.276;10.528;2022-10-26T03:36:07;11.70;99.90
48936;DHT22;34745;52.276;10.528;2022-10-26T03:38:36;11.70;99.90
48936;DHT22;34745;52.276;10.528;2022-10-26T03:41:03;11.70;99.90
48936;DHT22;34745;52.276;10.528;2022-10-26T03:43:30;11.70;99.90
48936;DHT22;34745;52.276;10.528;2022-10-26T03:45:57;11.70;99.90
48936;DHT22;34745;52.276;10.528;2022-10-26T03:48:24;11.70;99.90
48936;DHT22;34745;52.276;10.528;2022-10-26T03:50:51;11.70;99.90
48936;DHT22;34745;52.276;10.528;2022-10-26T03:53:22;11.70;99.90
48936;DHT22;34745;52.276;10.528;2022-10-26T03:55:51;11.80;99.90
48936;DHT22;34745;52.276;10.528;2022-10-26T03:58:18;11.70;99.90
48936;DHT22;34745;52.276;10.528;2022-10-26T04:00:46;11.70;99.90
48936;DHT22;34745;52.276;10.528;2022-10-26T04:03:13;11.70;99.90
48936;DHT22;34745;52.276;10.528;2022-10-26T04:05:40;11.70;99.90
48936;DHT22;34745;52.276;10.528;2022-10-26T04:08:07;11.70;99.90
48936;DHT22;34745;52.276;10.528;2022-10-26T04:10:35;11.70;99.90
48936;DHT22;34745;52.276;10.528;2022-10-26T04:13:03;11.70;99.90
48936;DHT22;34745;52.276;10.528;2022-10-26T04:15:30;11.70;99.90
48936;DHT22;34745;52.276;10.528;2022-10-26T04:17:58;11.70;99.90
48936;DHT22;34745;52.276;10.528;2022-10-26T04:20:26;11.70;99.90
48936;DHT22;34745;52.276;10.528;2022-10-26T04:22:57;11.70;99.90
48936;DHT22;34745;52.276;10.528;2022-10-26T04:25:25;11.80;99.90
48936;DHT22;34745;52.276;10.528;2022-10-26T04:27:58;11.70;99.90
48936;DHT22;34745;52.276;10.528;2022-10-26T04:30:27;11.70;99.90
48936;DHT22;34745;52.276;10.528;2022-10-26T04:32:54;11.70;99.90
48936;DHT22;34745;52.276;10.528;2022-10-26T04:35:22;11.70;99.90
48936;DHT22;34745;52.276;10.528;2022-10-26T04:37:49;11.70;99.90
48936;DHT22;34745;52.276;10.528;2022-10-26T04:40:16;11.70;99.90
48936;DHT22;34745;52.276;10.528;2022-10-26T04:42:44;11.70;99.90
48936;DHT22;34745;52.276;10.528;2022-10-26T04:45:14;11.70;99.90
48936;DHT22;34745;52.276;10.528;2022-10-26T04:47:42;11.60;99.90
48936;DHT22;34745;52.276;10.528;2022-10-26T04:50:11;11.70;99.90
48936;DHT22;34745;52.276;10.528;2022-10-26T04:52:39;11.70;99.90
48936;DHT22;34745;52.276;10.528;2022-10-26T04:55:07;11.60;99.90
48936;DHT22;34745;52.276;10.528;2022-10-26T04:57:34;11.60;99.90
48936;DHT22;34745;52.276;10.528;2022-10-26T05:00:03;11.60;99.90
48936;DHT22;34745;52.276;10.528;2022-10-26T05:02:30;11.60;99.90
48936;DHT22;34745;52.276;10.528;2022-10-26T05:04:59;11.60;99.90
48936;DHT22;34745;52.276;10.528;2022-10-26T05:07:26;11.60;99.90
48936;DHT22;34745;52.276;10.528;2022-10-26T05:09:54;11.60;99.90
48936;DHT22;34745;52.276;10.528;2022-10-26T05:12:21;11.60;99.90
48936;DHT22;34745;52.276;10.528;2022-10-26T05:14:48;11.60;99.90
48936;DHT22;34745;52.276;10.528;2022-10-26T05:17:14;11.60;99.90
48936;DHT22;34745;52.276;10.528;2022-10-26T05:19:41;11.60;99.90
48936;DHT22;34745;52.276;10.528;2022-10-26T05:22:10;11.60;99.90
48936;DHT22;34745;52.276;10.528;2022-10-26T05:24:37;11.60;99.90
48936;DHT22;34745;52.276;10.528;2022-10-26T05:27:04;11.60;99.90
48936;DHT22;34745;52.276;10.528;2022-10-26T05:29:31;11.60;99.90
48936;DHT22;34745;52.276;10.528;2022-10-26T05:31:58;11.60;99.90
48936;DHT22;34745;52.276;10.528;2022-10-26T05:34:25;11.60;99.90
48936;DHT22;34745;52.276;10.528;2022-10-26T05:36:52;11.50;99.90
48936;DHT22;34745;52.276;10.528;2022-10-26T05:39:22;11.50;99.90
48936;DHT22;34745;52.276;10.528;2022-10-26T05:41:48;11.50;99.90
48936;DHT22;34745;52.276;10.528;2022-10-26T05:44:16;11.50;99.90
48936;DHT22;34745;52.276;10.528;2022-10-26T05:46:43;11.50;99.90
48936;DHT22;34745;52.276;10.528;2022-10-26T05:49:12;11.40;99.90
48936;DHT22;34745;52.276;10.528;2022-10-26T05:51:39;11.40;99.90
48936;DHT22;34745;52.276;10.528;2022-10-26T05:54:07;11.30;99.90
48936;DHT22;34745;52.276;10.528;2022-10-26T05:56:41;11.30;99.90
48936;DHT22;34745;52.276;10.528;2022-10-26T05:59:11;11.30;99.90
48936;DHT22;34745;52.276;10.528;2022-10-26T06:01:51;11.30;99.90
48936;DHT22;34745;52.276;10.528;2022-10-26T06:04:35;11.20;99.90
48936;DHT22;34745;52.276;10.528;2022-10-26T06:07:09;11.20;99.90
48936;DHT22;34745;52.276;10.528;2022-10-26T06:09:38;11.10;99.90
48936;DHT22;34745;52.276;10.528;2022-10-26T06:12:07;11.10;99.90
48936;DHT22;34745;52.276;10.528;2022-10-26T06:14:36;11.10;99.90
48936;DHT22;34745;52.276;10.528;2022-10-26T06:17:15;11.10;99.90
48936;DHT22;34745;52.276;10.528;2022-10-26T06:19:54;11.10;99.90
48936;DHT22;34745;52.276;10.528;2022-10-26T06:22:36;11.10;99.90
48936;DHT22;34745;52.276;10.528;2022-10-26T06:25:16;11.10;99.90
48936;DHT22;34745;52.276;10.528;2022-10-26T06:27:52;11.20;99.90
48936;DHT22;34745;52.276;10.528;2022-10-26T06:30:22;11.20;99.90
48936;DHT22;34745;52.276;10.528;2022-10-26T06:32:50;11.20;99.90
48936;DHT22;34745;52.276;10.528;2022-10-26T06:35:44;11.20;99.90
48936;DHT22;34745;52.276;10.528;2022-10-26T06:38:17;11.20;99.90
48936;DHT22;34745;52.276;10.528;2022-10-26T06:40:49;11.20;99.90
48936;DHT22;34745;52.276;10.528;2022-10-26T06:43:23;11.30;99.90
48936;DHT22;34745;52.276;10.528;2022-10-26T06:45:55;11.30;99.90
48936;DHT22;34745;52.276;10.528;2022-10-26T06:48:27;11.30;99.90
48936;DHT22;34745;52.276;10.528;2022-10-26T06:50:56;11.20;99.90
48936;DHT22;34745;52.276;10.528;2022-10-26T06:53:28;11.20;99.90
48936;DHT22;34745;52.276;10.528;2022-10-26T06:55:58;11.20;99.90
48936;DHT22;34745;52.276;10.528;2022-10-26T06:58:28;11.30;99.90
48936;DHT22;34745;52.276;10.528;2022-10-26T07:00:56;11.30;99.90
48936;DHT22;34745;52.276;10.528;2022-10-26T07:03:23;11.30;99.90
48936;DHT22;34745;52.276;10.528;2022-10-26T07:05:51;11.30;99.90
48936;DHT22;34745;52.276;10.528;2022-10-26T07:08:18;11.40;99.90
48936;DHT22;34745;52.276;10.528;2022-10-26T07:10:46;11.40;99.90
48936;DHT22;34745;52.276;10.528;2022-10-26T07:13:13;11.40;99.90
48936;DHT22;34745;52.276;10.528;2022-10-26T07:15:42;11.30;99.90
48936;DHT22;34745;52.276;10.528;2022-10-26T07:18:09;11.40;99.90
48936;DHT22;34745;52.276;10.528;2022-10-26T07:20:37;11.40;99.90
48936;DHT22;34745;52.276;10.528;2022-10-26T07:23:05;11.50;99.90
48936;DHT22;34745;52.276;10.528;2022-10-26T07:25:34;11.60;99.90
48936;DHT22;34745;52.276;10.528;2022-10-26T07:28:05;11.60;99.90
48936;DHT22;34745;52.276;10.528;2022-10-26T07:30:32;11.70;99.90
48936;DHT22;34745;52.276;10.528;2022-10-26T07:33:02;11.80;99.90
48936;DHT22;34745;52.276;10.528;2022-10-26T07:35:31;11.90;99.90
48936;DHT22;34745;52.276;10.528;2022-10-26T07:37:58;12.00;99.90
48936;DHT22;34745;52.276;10.528;2022-10-26T07:40:26;12.20;99.90
48936;DHT22;34745;52.276;10.528;2022-10-26T07:42:55;12.10;99.90
48936;DHT22;34745;52.276;10.528;2022-10-26T07:45:23;12.20;99.90
48936;DHT22;34745;52.276;10.528;2022-10-26T07:47:50;12.30;99.90
48936;DHT22;34745;52.276;10.528;2022-10-26T07:50:19;12.40;99.90
48936;DHT22;34745;52.276;10.528;2022-10-26T07:52:46;12.40;99.90
48936;DHT22;34745;52.276;10.528;2022-10-26T07:55:14;12.60;99.90
48936;DHT22;34745;52.276;10.528;2022-10-26T07:57:41;12.60;99.90
48936;DHT22;34745;52.276;10.528;2022-10-26T08:00:09;12.60;99.90
48936;DHT22;34745;52.276;10.528;2022-10-26T08:02:37;12.60;99.90
48936;DHT22;34745;52.276;10.528;2022-10-26T08:05:05;12.70;99.90
48936;DHT22;34745;52.276;10.528;2022-10-26T08:07:39;12.70;99.90
48936;DHT22;34745;52.276;10.528;2022-10-26T08:10:07;12.80;99.90
48936;DHT22;34745;52.276;10.528;2022-10-26T08:12:34;12.80;99.90
48936;DHT22;34745;52.276;10.528;2022-10-26T08:15:02;12.90;99.90
48936;DHT22;34745;52.276;10.528;2022-10-26T08:17:29;12.90;99.90
48936;DHT22;34745;52.276;10.528;2022-10-26T08:19:56;13.00;99.90
48936;DHT22;34745;52.276;10.528;2022-10-26T08:22:24;13.20;99.90
48936;DHT22;34745;52.276;10.528;2022-10-26T08:24:52;13.10;99.90
48936;DHT22;34745;52.276;10.528;2022-10-26T08:27:19;13.20;92.60
48936;DHT22;34745;52.276;10.528;2022-10-26T08:29:46;13.20;93.30
48936;DHT22;34745;52.276;10.528;2022-10-26T08:32:13;13.30;83.50
48936;DHT22;34745;52.276;10.528;2022-10-26T08:34:40;13.40;73.40
48936;DHT22;34745;52.276;10.528;2022-10-26T08:37:07;13.50;63.30
48936;DHT22;34745;52.276;10.528;2022-10-26T08:39:34;13.50;77.40
48936;DHT22;34745;52.276;10.528;2022-10-26T08:42:08;13.60;67.70
48936;DHT22;34745;52.276;10.528;2022-10-26T08:44:40;13.70;57.60
48936;DHT22;34745;52.276;10.528;2022-10-26T08:47:14;13.80;52.10
48936;DHT22;34745;52.276;10.528;2022-10-26T08:49:48;13.90;42.40
48936;DHT22;34745;52.276;10.528;2022-10-26T08:52:20;14.00;44.20
48936;DHT22;34745;52.276;10.528;2022-10-26T08:54:51;14.10;33.90
48936;DHT22;34745;52.276;10.528;2022-10-26T08:57:24;14.10;18.90
48936;DHT22;34745;52.276;10.528;2022-10-26T08:59:57;14.10;18.60
48936;DHT22;34745;52.276;10.528;2022-10-26T09:02:25;14.20;23.00
48936;DHT22;34745;52.276;10.528;2022-10-26T09:04:53;14.10;16.00
48936;DHT22;34745;52.276;10.528;2022-10-26T09:07:49;14.10;29.30
48936;DHT22;34745;52.276;10.528;2022-10-26T09:10:28;14.10;29.00
48936;DHT22;34745;52.276;10.528;2022-10-26T09:13:07;14.20;30.30
48936;DHT22;34745;52.276;10.528;2022-10-26T09:15:47;14.20;28.80
48936;DHT22;34745;52.276;10.528;2022-10-26T09:18:27;14.30;21.50
48936;DHT22;34745;52.276;10.528;2022-10-26T09:21:11;14.20;20.30
48936;DHT22;34745;52.276;10.528;2022-10-26T09:23:58;14.20;20.00
48936;DHT22;34745;52.276;10.528;2022-10-26T09:26:31;14.20;21.00
48936;DHT22;34745;52.276;10.528;2022-10-26T09:29:02;14.20;22.60
48936;DHT22;34745;52.276;10.528;2022-10-26T09:31:36;14.30;27.50
48936;DHT22;34745;52.276;10.528;2022-10-26T09:34:17;14.10;32.70
48936;DHT22;34745;52.276;10.528;2022-10-26T09:36:45;14.10;40.50
48936;DHT22;34745;52.276;10.528;2022-10-26T09:39:18;14.10;47.40
48936;DHT22;34745;52.276;10.528;2022-10-26T09:41:51;14.20;57.90
48936;DHT22;34745;52.276;10.528;2022-10-26T09:44:24;14.20;50.20
48936;DHT22;34745;52.276;10.528;2022-10-26T09:46:57;14.30;53.60
48936;DHT22;34745;52.276;10.528;2022-10-26T09:49:34;14.30;48.70
48936;DHT22;34745;52.276;10.528;2022-10-26T09:52:03;14.40;50.80
48936;DHT22;34745;52.276;10.528;2022-10-26T09:54:30;14.40;49.80
48936;DHT22;34745;52.276;10.528;2022-10-26T09:56:58;14.40;48.40
48936;DHT22;34745;52.276;10.528;2022-10-26T09:59:33;14.40;44.80
48936;DHT22;34745;52.276;10.528;2022-10-26T10:05:00;14.50;44.80
48936;DHT22;34745;52.276;10.528;2022-10-26T10:07:28;14.50;45.00
48936;DHT22;34745;52.276;10.528;2022-10-26T10:10:07;14.60;41.40
48936;DHT22;34745;52.276;10.528;2022-10-26T10:12:34;14.70;39.00
48936;DHT22;34745;52.276;10.528;2022-10-26T10:15:03;14.70;35.80
48936;DHT22;34745;52.276;10.528;2022-10-26T10:17:30;14.80;30.50
48936;DHT22;34745;52.276;10.528;2022-10-26T10:20:06;15.00;27.80
48936;DHT22;34745;52.276;10.528;2022-10-26T10:22:52;15.20;6.80
48936;DHT22;34745;52.276;10.528;2022-10-26T10:25:23;15.40;1.00
48936;DHT22;34745;52.276;10.528;2022-10-26T10:27:52;15.40;1.00
48936;DHT22;34745;52.276;10.528;2022-10-26T10:30:23;15.50;1.00
48936;DHT22;34745;52.276;10.528;2022-10-26T10:33:04;15.50;1.00
48936;DHT22;34745;52.276;10.528;2022-10-26T10:35:32;15.60;1.00
48936;DHT22;34745;52.276;10.528;2022-10-26T10:37:59;15.70;1.00
48936;DHT22;34745;52.276;10.528;2022-10-26T10:40:27;15.80;1.00
48936;DHT22;34745;52.276;10.528;2022-10-26T10:43:05;16.00;1.00
48936;DHT22;34745;52.276;10.528;2022-10-26T10:45:34;15.90;1.00
48936;DHT22;34745;52.276;10.528;2022-10-26T10:48:04;16.10;1.00
48936;DHT22;34745;52.276;10.528;2022-10-26T10:50:50;16.40;1.00
48936;DHT22;34745;52.276;10.528;2022-10-26T10:53:20;16.90;1.00
48936;DHT22;34745;52.276;10.528;2022-10-26T10:56:13;17.20;1.00
48936;DHT22;34745;52.276;10.528;2022-10-26T10:58:51;17.60;1.00
48936;DHT22;34745;52.276;10.528;2022-10-26T11:01:30;17.70;1.00
48936;DHT22;34745;52.276;10.528;2022-10-26T11:07:00;17.80;1.00
48936;DHT22;34745;52.276;10.528;2022-10-26T11:09:32;17.30;1.00
48936;DHT22;34745;52.276;10.528;2022-10-26T11:12:02;17.20;1.00
48936;DHT22;34745;52.276;10.528;2022-10-26T11:14:36;17.20;1.00
48936;DHT22;34745;52.276;10.528;2022-10-26T11:17:10;17.20;1.00
48936;DHT22;34745;52.276;10.528;2022-10-26T11:19:44;17.20;1.00
48936;DHT22;34745;52.276;10.528;2022-10-26T11:22:15;17.10;1.00
48936;DHT22;34745;52.276;10.528;2022-10-26T11:24:45;17.10;1.00
48936;DHT22;34745;52.276;10.528;2022-10-26T11:27:16;17.10;1.00
48936;DHT22;34745;52.276;10.528;2022-10-26T11:29:50;17.10;1.00
48936;DHT22;34745;52.276;10.528;2022-10-26T11:32:23;17.10;1.00
48936;DHT22;34745;52.276;10.528;2022-10-26T11:34:57;17.00;1.00
48936;DHT22;34745;52.276;10.528;2022-10-26T11:37:30;17.00;1.00
48936;DHT22;34745;52.276;10.528;2022-10-26T11:40:02;17.20;1.00
48936;DHT22;34745;52.276;10.528;2022-10-26T11:42:35;17.10;1.00
48936;DHT22;34745;52.276;10.528;2022-10-26T11:45:10;17.00;1.00
48936;DHT22;34745;52.276;10.528;2022-10-26T11:47:45;17.00;1.00
48936;DHT22;34745;52.276;10.528;2022-10-26T11:50:16;16.90;1.00
48936;DHT22;34745;52.276;10.528;2022-10-26T11:52:48;16.80;1.00
48936;DHT22;34745;52.276;10.528;2022-10-26T11:55:21;16.90;1.00
48936;DHT22;34745;52.276;10.528;2022-10-26T11:57:50;16.80;1.00
48936;DHT22;34745;52.276;10.528;2022-10-26T12:00:20;16.80;1.00
48936;DHT22;34745;52.276;10.528;2022-10-26T12:02:54;16.90;1.00
48936;DHT22;34745;52.276;10.528;2022-10-26T12:05:32;16.90;1.00
48936;DHT22;34745;52.276;10.528;2022-10-26T12:08:04;17.00;1.00
48936;DHT22;34745;52.276;10.528;2022-10-26T12:10:34;17.00;1.00
48936;DHT22;34745;52.276;10.528;2022-10-26T12:13:10;17.10;1.00
48936;DHT22;34745;52.276;10.528;2022-10-26T12:15:43;17.20;1.00
48936;DHT22;34745;52.276;10.528;2022-10-26T12:18:36;17.20;1.00
48936;DHT22;34745;52.276;10.528;2022-10-26T12:21:25;17.40;1.00
48936;DHT22;34745;52.276;10.528;2022-10-26T12:23:55;18.10;1.00
48936;DHT22;34745;52.276;10.528;2022-10-26T12:26:50;18.90;1.00
48936;DHT22;34745;52.276;10.528;2022-10-26T12:29:35;19.60;1.00
48936;DHT22;34745;52.276;10.528;2022-10-26T12:35:01;19.80;1.00
48936;DHT22;34745;52.276;10.528;2022-10-26T12:37:32;20.10;1.00
48936;DHT22;34745;52.276;10.528;2022-10-26T12:40:37;20.70;1.00
48936;DHT22;34745;52.276;10.528;2022-10-26T12:43:36;21.10;1.00
48936;DHT22;34745;52.276;10.528;2022-10-26T13:05:18;19.90;1.00
48936;DHT22;34745;52.276;10.528;2022-10-26T13:07:51;19.80;1.00
48936;DHT22;34745;52.276;10.528;2022-10-26T13:10:26;19.80;1.00
48936;DHT22;34745;52.276;10.528;2022-10-26T13:12:55;19.80;1.00
48936;DHT22;34745;52.276;10.528;2022-10-26T13:15:25;19.80;1.00
48936;DHT22;34745;52.276;10.528;2022-10-26T13:17:59;19.80;1.00
48936;DHT22;34745;52.276;10.528;2022-10-26T13:20:29;19.40;1.00
48936;DHT22;34745;52.276;10.528;2022-10-26T13:22:58;19.20;1.00
48936;DHT22;34745;52.276;10.528;2022-10-26T13:25:27;18.90;1.00
48936;DHT22;34745;52.276;10.528;2022-10-26T13:28:01;18.90;1.00
48936;DHT22;34745;52.276;10.528;2022-10-26T13:30:42;19.00;1.00
48936;DHT22;34745;52.276;10.528;2022-10-26T13:33:20;19.00;1.00
48936;DHT22;34745;52.276;10.528;2022-10-26T13:35:55;18.80;1.00
48936;DHT22;34745;52.276;10.528;2022-10-26T13:38:28;18.70;1.00
48936;DHT22;34745;52.276;10.528;2022-10-26T13:41:07;18.50;1.00
48936;DHT22;34745;52.276;10.528;2022-10-26T13:43:38;18.40;1.00
48936;DHT22;34745;52.276;10.528;2022-10-26T13:46:05;18.30;1.00
48936;DHT22;34745;52.276;10.528;2022-10-26T13:48:37;18.30;1.00
48936;DHT22;34745;52.276;10.528;2022-10-26T13:51:13;18.30;1.00
48936;DHT22;34745;52.276;10.528;2022-10-26T13:53:47;18.30;1.00
48936;DHT22;34745;52.276;10.528;2022-10-26T13:56:21;18.40;1.00
48936;DHT22;34745;52.276;10.528;2022-10-26T13:58:55;18.40;1.00
48936;DHT22;34745;52.276;10.528;2022-10-26T14:01:24;18.50;1.00
48936;DHT22;34745;52.276;10.528;2022-10-26T14:03:52;18.80;1.00
48936;DHT22;34745;52.276;10.528;2022-10-26T14:06:25;19.00;1.00
48936;DHT22;34745;52.276;10.528;2022-10-26T14:08:57;19.20;1.00
48936;DHT22;34745;52.276;10.528;2022-10-26T14:11:31;19.20;1.00
48936;DHT22;34745;52.276;10.528;2022-10-26T14:14:00;19.20;1.00
48936;DHT22;34745;52.276;10.528;2022-10-26T14:16:30;19.20;1.00
48936;DHT22;34745;52.276;10.528;2022-10-26T14:18:58;19.20;1.00
48936;DHT22;34745;52.276;10.528;2022-10-26T14:21:25;19.20;1.00
48936;DHT22;34745;52.276;10.528;2022-10-26T14:23:56;19.30;1.00
48936;DHT22;34745;52.276;10.528;2022-10-26T14:26:25;19.20;1.00
48936;DHT22;34745;52.276;10.528;2022-10-26T14:28:54;19.20;1.00
48936;DHT22;34745;52.276;10.528;2022-10-26T14:31:25;19.30;1.00
48936;DHT22;34745;52.276;10.528;2022-10-26T14:33:53;19.40;1.00
48936;DHT22;34745;52.276;10.528;2022-10-26T14:36:23;19.30;1.00
48936;DHT22;34745;52.276;10.528;2022-10-26T14:38:57;19.20;1.00
48936;DHT22;34745;52.276;10.528;2022-10-26T14:41:26;19.20;1.00
48936;DHT22;34745;52.276;10.528;2022-10-26T14:43:55;19.10;1.00
48936;DHT22;34745;52.276;10.528;2022-10-26T14:46:23;18.90;1.00
48936;DHT22;34745;52.276;10.528;2022-10-26T14:48:52;18.80;1.00
48936;DHT22;34745;52.276;10.528;2022-10-26T14:51:24;18.70;1.00
48936;DHT22;34745;52.276;10.528;2022-10-26T14:53:53;18.60;1.00
48936;DHT22;34745;52.276;10.528;2022-10-26T14:56:25;18.50;1.00
48936;DHT22;34745;52.276;10.528;2022-10-26T14:58:55;18.60;1.00
48936;DHT22;34745;52.276;10.528;2022-10-26T15:01:26;18.60;1.00
48936;DHT22;34745;52.276;10.528;2022-10-26T15:03:59;18.70;1.00
48936;DHT22;34745;52.276;10.528;2022-10-26T15:06:39;18.50;1.00
48936;DHT22;34745;52.276;10.528;2022-10-26T15:09:31;18.40;1.00
48936;DHT22;34745;52.276;10.528;2022-10-26T15:12:00;18.40;1.00
48936;DHT22;34745;52.276;10.528;2022-10-26T15:14:29;18.30;1.00
48936;DHT22;34745;52.276;10.528;2022-10-26T15:16:57;18.30;1.00
48936;DHT22;34745;52.276;10.528;2022-10-26T15:19:25;18.20;1.00
48936;DHT22;34745;52.276;10.528;2022-10-26T15:21:53;18.20;1.00
48936;DHT22;34745;52.276;10.528;2022-10-26T15:24:30;18.10;1.00
48936;DHT22;34745;52.276;10.528;2022-10-26T15:27:11;18.00;1.00
48936;DHT22;34745;52.276;10.528;2022-10-26T15:29:41;17.90;1.00
48936;DHT22;34745;52.276;10.528;2022-10-26T15:32:27;17.90;1.00
48936;DHT22;34745;52.276;10.528;2022-10-26T15:35:14;17.70;1.00
48936;DHT22;34745;52.276;10.528;2022-10-26T15:37:47;17.70;1.00
48936;DHT22;34745;52.276;10.528;2022-10-26T15:40:14;17.60;1.00
48936;DHT22;34745;52.276;10.528;2022-10-26T15:42:46;17.40;1.00
48936;DHT22;34745;52.276;10.528;2022-10-26T15:45:17;17.40;1.00
48936;DHT22;34745;52.276;10.528;2022-10-26T15:47:45;17.40;1.00
48936;DHT22;34745;52.276;10.528;2022-10-26T15:50:14;17.30;1.00
48936;DHT22;34745;52.276;10.528;2022-10-26T15:52:41;17.40;1.00
48936;DHT22;34745;52.276;10.528;2022-10-26T15:55:14;17.20;1.00
48936;DHT22;34745;52.276;10.528;2022-10-26T15:57:42;17.20;1.00
48936;DHT22;34745;52.276;10.528;2022-10-26T16:00:13;17.20;1.00
48936;DHT22;34745;52.276;10.528;2022-10-26T16:02:41;17.20;1.00
48936;DHT22;34745;52.276;10.528;2022-10-26T16:05:10;17.20;1.00
48936;DHT22;34745;52.276;10.528;2022-10-26T16:07:39;17.00;1.00
48936;DHT22;34745;52.276;10.528;2022-10-26T16:10:13;17.10;1.00
48936;DHT22;34745;52.276;10.528;2022-10-26T16:12:40;17.00;1.00
48936;DHT22;34745;52.276;10.528;2022-10-26T16:15:18;16.80;1.00
48936;DHT22;34745;52.276;10.528;2022-10-26T16:17:45;16.80;1.00
48936;DHT22;34745;52.276;10.528;2022-10-26T16:20:15;16.80;1.00